sensor_id;sensor_type;location;lat;lon;timestamp;pressure;altitude;pressure_sealevel;temperature;humidity
27729;BME280;15126;42.186;24.340;2023-02-22T00:01:20;99125.19;;;12.30;39.46
27729;BME280;15126;42.186;24.340;2023-02-22T00:04:00;99120.16;;;12.38;39.32
27729;BME280;15126;42.186;24.340;2023-02-22T00:06:27;99121.59;;;12.42;39.09
27729;BME280;15126;42.186;24.340;2023-02-22T00:08:55;99121.16;;;12.44;39.67
27729;BME280;15126;42.186;24.340;2023-02-22T00:11:23;99124.06;;;12.40;40.08
27729;BME280;15126;42.186;24.340;2023-02-22T00:13:49;99123.41;;;12.36;40.11
27729;BME280;15126;42.186;24.340;2023-02-22T00:16:19;99128.88;;;12.40;39.88
27729;BME280;15126;42.186;24.340;2023-02-22T00:18:47;99139.41;;;12.36;39.67
27729;BME280;15126;42.186;24.340;2023-02-22T00:21:15;99139.94;;;12.18;39.55
27729;BME280;15126;42.186;24.340;2023-02-22T00:23:43;99147.63;;;12.02;41.30
27729;BME280;15126;42.186;24.340;2023-02-22T00:26:13;99140.66;;;11.81;41.43
27729;BME280;15126;42.186;24.340;2023-02-22T00:28:44;99140.06;;;11.73;40.79
27729;BME280;15126;42.186;24.340;2023-02-22T00:31:10;99136.78;;;11.62;40.93
27729;BME280;15126;42.186;24.340;2023-02-22T00:33:40;99145.38;;;11.68;40.59
27729;BME280;15126;42.186;24.340;2023-02-22T00:36:09;99150.66;;;11.66;40.45
27729;BME280;15126;42.186;24.340;2023-02-22T00:38:36;99152.97;;;11.67;40.59
27729;BME280;15126;42.186;24.340;2023-02-22T00:41:03;99149.50;;;11.63;40.58
27729;BME280;15126;42.186;24.340;2023-02-22T00:43:30;99132.84;;;11.60;40.47
27729;BME280;15126;42.186;24.340;2023-02-22T00:45:57;99159.19;;;11.75;40.30
27729;BME280;15126;42.186;24.340;2023-02-22T00:48:24;99164.84;;;11.71;40.11
27729;BME280;15126;42.186;24.340;2023-02-22T00:50:52;99166.88;;;11.71;40.02
27729;BME280;15126;42.186;24.340;2023-02-22T00:53:20;99175.50;;;11.76;40.30
27729;BME280;15126;42.186;24.340;2023-02-22T00:55:48;99176.19;;;11.80;40.28
27729;BME280;15126;42.186;24.340;2023-02-22T00:58:15;99172.16;;;11.81;40.27
27729;BME280;15126;42.186;24.340;2023-02-22T01:00:43;99161.53;;;11.76;40.59
27729;BME280;15126;42.186;24.340;2023-02-22T01:03:12;99163.91;;;11.62;41.87
27729;BME280;15126;42.186;24.340;2023-02-22T01:05:40;99158.97;;;11.53;41.72
27729;BME280;15126;42.186;24.340;2023-02-22T01:08:10;99156.78;;;11.45;42.01
27729;BME280;15126;42.186;24.340;2023-02-22T01:10:38;99159.00;;;11.37;41.96
27729;BME280;15126;42.186;24.340;2023-02-22T01:13:06;99154.28;;;11.34;42.26
27729;BME280;15126;42.186;24.340;2023-02-22T01:15:39;99156.41;;;11.30;43.05
27729;BME280;15126;42.186;24.340;2023-02-22T01:18:06;99154.50;;;11.27;42.52
27729;BME280;15126;42.186;24.340;2023-02-22T01:20:34;99154.66;;;11.20;43.50
27729;BME280;15126;42.186;24.340;2023-02-22T01:23:02;99155.19;;;11.15;43.31
27729;BME280;15126;42.186;24.340;2023-02-22T01:25:33;99158.25;;;11.04;43.17
27729;BME280;15126;42.186;24.340;2023-02-22T01:28:01;99159.50;;;11.03;43.89
27729;BME280;15126;42.186;24.340;2023-02-22T01:30:29;99156.97;;;10.93;44.75
27729;BME280;15126;42.186;24.340;2023-02-22T01:32:57;99156.34;;;11.01;43.98
27729;BME280;15126;42.186;24.340;2023-02-22T01:35:27;99159.94;;;11.02;43.60
27729;BME280;15126;42.186;24.340;2023-02-22T01:37:54;99157.94;;;11.02;44.48
27729;BME280;15126;42.186;24.340;2023-02-22T01:40:25;99160.25;;;11.04;44.09
27729;BME280;15126;42.186;24.340;2023-02-22T01:42:57;99133.25;;;10.85;45.39
27729;BME280;15126;42.186;24.340;2023-02-22T01:45:47;99159.31;;;10.94;44.39
27729;BME280;15126;42.186;24.340;2023-02-22T01:48:18;99151.50;;;10.89;43.85
27729;BME280;15126;42.186;24.340;2023-02-22T01:50:50;99146.19;;;10.79;44.31
27729;BME280;15126;42.186;24.340;2023-02-22T01:53:21;99157.94;;;10.86;43.80
27729;BME280;15126;42.186;24.340;2023-02-22T01:55:49;99154.81;;;10.84;44.44
27729;BME280;15126;42.186;24.340;2023-02-22T01:58:20;99154.69;;;10.88;43.50
27729;BME280;15126;42.186;24.340;2023-02-22T02:00:48;99149.81;;;10.92;43.43
27729;BME280;15126;42.186;24.340;2023-02-22T02:03:17;99151.56;;;10.86;44.35
27729;BME280;15126;42.186;24.340;2023-02-22T02:05:49;99136.56;;;10.80;43.75
27729;BME280;15126;42.186;24.340;2023-02-22T02:08:23;99142.84;;;10.84;44.10
27729;BME280;15126;42.186;24.340;2023-02-22T02:10:54;99142.16;;;10.80;44.63
27729;BME280;15126;42.186;24.340;2023-02-22T02:13:24;99139.03;;;10.77;44.41
27729;BME280;15126;42.186;24.340;2023-02-22T02:15:53;99143.22;;;10.69;44.78
27729;BME280;15126;42.186;24.340;2023-02-22T02:18:21;99118.91;;;10.54;44.53
27729;BME280;15126;42.186;24.340;2023-02-22T02:21:07;99138.41;;;10.70;45.01
27729;BME280;15126;42.186;24.340;2023-02-22T02:23:51;99133.00;;;10.63;44.63
27729;BME280;15126;42.186;24.340;2023-02-22T02:26:50;99141.81;;;10.61;45.73
27729;BME280;15126;42.186;24.340;2023-02-22T02:32:33;99139.69;;;10.49;45.04
27729;BME280;15126;42.186;24.340;2023-02-22T02:35:04;99140.75;;;10.39;45.56
27729;BME280;15126;42.186;24.340;2023-02-22T02:37:37;99144.97;;;10.28;45.61
27729;BME280;15126;42.186;24.340;2023-02-22T02:40:11;99145.84;;;10.25;46.21
27729;BME280;15126;42.186;24.340;2023-02-22T02:42:54;99146.09;;;10.14;45.65
27729;BME280;15126;42.186;24.340;2023-02-22T02:45:28;99146.22;;;10.07;46.21
27729;BME280;15126;42.186;24.340;2023-02-22T02:47:59;99153.16;;;10.19;46.70
27729;BME280;15126;42.186;24.340;2023-02-22T02:50:30;99155.16;;;10.18;46.03
27729;BME280;15126;42.186;24.340;2023-02-22T02:53:01;99154.66;;;10.23;46.24
27729;BME280;15126;42.186;24.340;2023-02-22T02:55:31;99158.91;;;10.28;46.03
27729;BME280;15126;42.186;24.340;2023-02-22T02:58:00;99152.94;;;10.29;45.21
27729;BME280;15126;42.186;24.340;2023-02-22T03:00:30;99163.56;;;10.34;45.33
27729;BME280;15126;42.186;24.340;2023-02-22T03:03:22;99155.19;;;10.34;45.10
27729;BME280;15126;42.186;24.340;2023-02-22T03:06:06;99153.72;;;10.30;45.05
27729;BME280;15126;42.186;24.340;2023-02-22T03:08:41;99161.63;;;10.31;45.53
27729;BME280;15126;42.186;24.340;2023-02-22T03:11:11;99156.91;;;10.28;45.20
27729;BME280;15126;42.186;24.340;2023-02-22T03:13:49;99162.22;;;10.23;45.21
27729;BME280;15126;42.186;24.340;2023-02-22T03:16:22;99165.78;;;10.23;45.82
27729;BME280;15126;42.186;24.340;2023-02-22T03:19:03;99160.38;;;10.16;45.57
27729;BME280;15126;42.186;24.340;2023-02-22T03:21:42;99170.16;;;10.24;44.97
27729;BME280;15126;42.186;24.340;2023-02-22T03:24:13;99161.81;;;10.24;45.36
27729;BME280;15126;42.186;24.340;2023-02-22T03:26:53;99176.16;;;10.23;44.86
27729;BME280;15126;42.186;24.340;2023-02-22T03:29:23;99169.72;;;10.26;45.35
27729;BME280;15126;42.186;24.340;2023-02-22T03:31:55;99165.53;;;10.18;46.93
27729;BME280;15126;42.186;24.340;2023-02-22T03:34:30;99174.59;;;10.22;45.96
27729;BME280;15126;42.186;24.340;2023-02-22T03:37:02;99172.84;;;10.28;44.78
27729;BME280;15126;42.186;24.340;2023-02-22T03:39:32;99172.84;;;10.28;45.13
27729;BME280;15126;42.186;24.340;2023-02-22T03:42:05;99167.38;;;10.24;45.87
27729;BME280;15126;42.186;24.340;2023-02-22T03:44:37;99174.09;;;10.27;46.01
27729;BME280;15126;42.186;24.340;2023-02-22T03:47:07;99161.44;;;10.22;45.89
27729;BME280;15126;42.186;24.340;2023-02-22T03:49:39;99173.56;;;10.32;45.95
27729;BME280;15126;42.186;24.340;2023-02-22T03:52:08;99176.59;;;10.21;46.92
27729;BME280;15126;42.186;24.340;2023-02-22T03:54:37;99174.50;;;10.25;47.27
27729;BME280;15126;42.186;24.340;2023-02-22T03:57:08;99178.88;;;10.26;47.06
27729;BME280;15126;42.186;24.340;2023-02-22T03:59:37;99181.72;;;10.23;46.78
27729;BME280;15126;42.186;24.340;2023-02-22T04:02:05;99178.66;;;10.17;46.86
27729;BME280;15126;42.186;24.340;2023-02-22T04:04:31;99179.91;;;10.16;46.57
27729;BME280;15126;42.186;24.340;2023-02-22T04:07:00;99179.53;;;10.14;46.96
27729;BME280;15126;42.186;24.340;2023-02-22T04:09:27;99181.31;;;10.24;45.85
27729;BME280;15126;42.186;24.340;2023-02-22T04:11:53;99185.66;;;10.25;45.46
27729;BME280;15126;42.186;24.340;2023-02-22T04:14:20;99188.03;;;10.27;45.00
27729;BME280;15126;42.186;24.340;2023-02-22T04:16:47;99175.16;;;10.33;45.34
27729;BME280;15126;42.186;24.340;2023-02-22T04:19:14;99181.41;;;10.37;45.19
27729;BME280;15126;42.186;24.340;2023-02-22T04:21:40;99184.13;;;10.40;44.88
27729;BME280;15126;42.186;24.340;2023-02-22T04:24:09;99180.97;;;10.38;45.95
27729;BME280;15126;42.186;24.340;2023-02-22T04:26:36;99177.50;;;10.34;45.74
27729;BME280;15126;42.186;24.340;2023-02-22T04:29:03;99183.59;;;10.29;45.01
27729;BME280;15126;42.186;24.340;2023-02-22T04:31:29;99180.06;;;10.25;45.00
27729;BME280;15126;42.186;24.340;2023-02-22T04:33:58;99190.19;;;10.19;45.98
27729;BME280;15126;42.186;24.340;2023-02-22T04:36:24;99192.25;;;10.15;46.44
27729;BME280;15126;42.186;24.340;2023-02-22T04:38:52;99189.94;;;10.10;45.81
27729;BME280;15126;42.186;24.340;2023-02-22T04:41:20;99187.50;;;10.12;45.63
27729;BME280;15126;42.186;24.340;2023-02-22T04:43:47;99186.66;;;10.15;45.93
27729;BME280;15126;42.186;24.340;2023-02-22T04:46:14;99189.94;;;10.10;45.40
27729;BME280;15126;42.186;24.340;2023-02-22T04:48:41;99150.66;;;9.85;46.36
27729;BME280;15126;42.186;24.340;2023-02-22T04:51:08;99193.94;;;10.09;45.69
27729;BME280;15126;42.186;24.340;2023-02-22T04:53:35;99188.00;;;10.07;45.79
27729;BME280;15126;42.186;24.340;2023-02-22T04:56:02;99177.03;;;10.00;46.41
27729;BME280;15126;42.186;24.340;2023-02-22T04:58:30;99185.09;;;10.14;45.69
27729;BME280;15126;42.186;24.340;2023-02-22T05:00:58;99180.78;;;10.09;45.49
27729;BME280;15126;42.186;24.340;2023-02-22T05:03:25;99187.81;;;10.18;45.09
27729;BME280;15126;42.186;24.340;2023-02-22T05:05:51;99185.66;;;10.25;45.04
27729;BME280;15126;42.186;24.340;2023-02-22T05:08:18;99188.72;;;10.31;45.52
27729;BME280;15126;42.186;24.340;2023-02-22T05:10:45;99186.06;;;10.43;45.12
27729;BME280;15126;42.186;24.340;2023-02-22T05:13:12;99195.97;;;10.44;45.77
27729;BME280;15126;42.186;24.340;2023-02-22T05:15:40;99196.41;;;10.43;45.11
27729;BME280;15126;42.186;24.340;2023-02-22T05:18:07;99196.53;;;10.55;45.57
27729;BME280;15126;42.186;24.340;2023-02-22T05:20:34;99197.75;;;10.54;45.38
27729;BME280;15126;42.186;24.340;2023-02-22T05:23:01;99196.78;;;10.61;44.53
27729;BME280;15126;42.186;24.340;2023-02-22T05:25:29;99201.25;;;10.74;45.11
27729;BME280;15126;42.186;24.340;2023-02-22T05:27:59;99206.31;;;10.80;44.93
27729;BME280;15126;42.186;24.340;2023-02-22T05:30:29;99201.72;;;10.89;44.34
27729;BME280;15126;42.186;24.340;2023-02-22T05:32:58;99192.88;;;10.91;44.66
27729;BME280;15126;42.186;24.340;2023-02-22T05:35:26;99202.22;;;11.00;43.92
27729;BME280;15126;42.186;24.340;2023-02-22T05:37:53;99206.84;;;11.07;43.91
27729;BME280;15126;42.186;24.340;2023-02-22T05:40:21;99204.22;;;11.16;43.41
27729;BME280;15126;42.186;24.340;2023-02-22T05:42:49;99198.38;;;11.26;42.83
27729;BME280;15126;42.186;24.340;2023-02-22T05:45:17;99207.00;;;11.32;43.35
27729;BME280;15126;42.186;24.340;2023-02-22T05:47:45;99209.16;;;11.41;43.82
27729;BME280;15126;42.186;24.340;2023-02-22T05:50:13;99208.28;;;11.44;43.30
27729;BME280;15126;42.186;24.340;2023-02-22T05:52:40;99208.38;;;11.40;42.67
27729;BME280;15126;42.186;24.340;2023-02-22T05:55:09;99212.56;;;11.48;42.58
27729;BME280;15126;42.186;24.340;2023-02-22T05:57:36;99211.44;;;11.46;42.90
27729;BME280;15126;42.186;24.340;2023-02-22T06:00:08;99212.22;;;11.46;43.02
27729;BME280;15126;42.186;24.340;2023-02-22T06:02:35;99219.34;;;11.47;43.70
27729;BME280;15126;42.186;24.340;2023-02-22T06:05:02;99222.84;;;11.51;44.17
27729;BME280;15126;42.186;24.340;2023-02-22T06:07:30;99226.97;;;11.47;43.93
27729;BME280;15126;42.186;24.340;2023-02-22T06:09:57;99222.34;;;11.40;44.21
27729;BME280;15126;42.186;24.340;2023-02-22T06:12:24;99227.84;;;11.44;43.59
27729;BME280;15126;42.186;24.340;2023-02-22T06:14:51;99233.69;;;11.49;43.21
27729;BME280;15126;42.186;24.340;2023-02-22T06:17:18;99226.06;;;11.50;43.59
27729;BME280;15126;42.186;24.340;2023-02-22T06:19:44;99232.63;;;11.59;42.97
27729;BME280;15126;42.186;24.340;2023-02-22T06:22:15;99229.47;;;11.57;42.75
27729;BME280;15126;42.186;24.340;2023-02-22T06:24:44;99229.47;;;11.73;42.38
27729;BME280;15126;42.186;24.340;2023-02-22T06:27:10;99231.75;;;11.91;42.04
27729;BME280;15126;42.186;24.340;2023-02-22T06:29:37;99233.44;;;12.17;42.87
27729;BME280;15126;42.186;24.340;2023-02-22T06:32:04;99231.69;;;12.48;42.12
27729;BME280;15126;42.186;24.340;2023-02-22T06:34:31;99229.56;;;12.78;40.79
27729;BME280;15126;42.186;24.340;2023-02-22T06:36:58;99228.91;;;12.99;39.80
27729;BME280;15126;42.186;24.340;2023-02-22T06:39:25;99237.09;;;13.19;39.95
27729;BME280;15126;42.186;24.340;2023-02-22T06:41:53;99234.59;;;13.33;38.48
27729;BME280;15126;42.186;24.340;2023-02-22T06:44:22;99240.75;;;13.41;39.58
27729;BME280;15126;42.186;24.340;2023-02-22T06:46:49;99240.59;;;13.57;40.50
27729;BME280;15126;42.186;24.340;2023-02-22T06:49:17;99216.38;;;13.63;38.34
27729;BME280;15126;42.186;24.340;2023-02-22T06:51:44;99236.84;;;13.94;39.14
27729;BME280;15126;42.186;24.340;2023-02-22T06:54:11;99243.72;;;14.15;40.01
27729;BME280;15126;42.186;24.340;2023-02-22T06:56:38;99245.56;;;14.30;38.83
27729;BME280;15126;42.186;24.340;2023-02-22T06:59:06;99244.88;;;14.39;37.71
27729;BME280;15126;42.186;24.340;2023-02-22T07:01:33;99238.84;;;14.50;38.41
27729;BME280;15126;42.186;24.340;2023-02-22T07:03:59;99241.72;;;14.59;39.42
27729;BME280;15126;42.186;24.340;2023-02-22T07:06:26;99245.66;;;14.70;38.48
27729;BME280;15126;42.186;24.340;2023-02-22T07:08:53;99238.66;;;14.75;38.14
27729;BME280;15126;42.186;24.340;2023-02-22T07:11:20;99246.19;;;14.78;37.10
27729;BME280;15126;42.186;24.340;2023-02-22T07:13:47;99243.72;;;14.89;37.61
27729;BME280;15126;42.186;24.340;2023-02-22T07:16:15;99246.88;;;15.00;37.57
27729;BME280;15126;42.186;24.340;2023-02-22T07:18:42;99243.31;;;15.09;37.49
27729;BME280;15126;42.186;24.340;2023-02-22T07:21:08;99239.00;;;15.26;38.65
27729;BME280;15126;42.186;24.340;2023-02-22T07:23:36;99237.03;;;15.44;38.52
27729;BME280;15126;42.186;24.340;2023-02-22T07:26:03;99236.94;;;15.66;38.26
27729;BME280;15126;42.186;24.340;2023-02-22T07:28:30;99216.63;;;15.71;38.10
27729;BME280;15126;42.186;24.340;2023-02-22T07:30:57;99221.34;;;15.92;38.42
27729;BME280;15126;42.186;24.340;2023-02-22T07:33:27;99226.16;;;16.19;37.05
27729;BME280;15126;42.186;24.340;2023-02-22T07:35:53;99234.06;;;16.39;36.83
27729;BME280;15126;42.186;24.340;2023-02-22T07:38:20;99233.44;;;16.53;36.48
27729;BME280;15126;42.186;24.340;2023-02-22T07:40:47;99207.66;;;16.54;36.31
27729;BME280;15126;42.186;24.340;2023-02-22T07:43:15;99236.03;;;16.84;34.69
27729;BME280;15126;42.186;24.340;2023-02-22T07:45:43;99218.31;;;16.92;35.93
27729;BME280;15126;42.186;24.340;2023-02-22T07:48:10;99234.97;;;17.14;34.20
27729;BME280;15126;42.186;24.340;2023-02-22T07:50:39;99234.31;;;17.19;35.18
27729;BME280;15126;42.186;24.340;2023-02-22T07:53:12;99232.97;;;17.29;33.82
27729;BME280;15126;42.186;24.340;2023-02-22T07:55:39;99228.63;;;17.28;33.10
27729;BME280;15126;42.186;24.340;2023-02-22T07:58:07;99227.88;;;17.42;34.40
27729;BME280;15126;42.186;24.340;2023-02-22T08:00:36;99225.66;;;17.55;33.39
27729;BME280;15126;42.186;24.340;2023-02-22T08:03:05;99219.66;;;17.62;33.52
27729;BME280;15126;42.186;24.340;2023-02-22T08:05:33;99218.31;;;17.72;34.32
27729;BME280;15126;42.186;24.340;2023-02-22T08:08:02;99215.66;;;17.93;33.81
27729;BME280;15126;42.186;24.340;2023-02-22T08:10:30;99207.88;;;18.02;33.37
27729;BME280;15126;42.186;24.340;2023-02-22T08:12:57;99214.44;;;18.23;32.73
27729;BME280;15126;42.186;24.340;2023-02-22T08:15:26;99187.28;;;18.25;32.38
27729;BME280;15126;42.186;24.340;2023-02-22T08:17:54;99201.69;;;18.27;31.47
27729;BME280;15126;42.186;24.340;2023-02-22T08:20:21;99203.03;;;18.32;31.84
27729;BME280;15126;42.186;24.340;2023-02-22T08:22:48;99195.16;;;18.36;31.77
27729;BME280;15126;42.186;24.340;2023-02-22T08:25:18;99198.13;;;18.56;32.05
27729;BME280;15126;42.186;24.340;2023-02-22T08:27:45;99194.72;;;18.67;31.91
27729;BME280;15126;42.186;24.340;2023-02-22T08:30:17;99196.16;;;18.77;31.69
27729;BME280;15126;42.186;24.340;2023-02-22T08:32:44;99185.03;;;18.88;32.47
27729;BME280;15126;42.186;24.340;2023-02-22T08:35:11;99186.97;;;18.96;32.14
27729;BME280;15126;42.186;24.340;2023-02-22T08:37:41;99175.94;;;18.98;31.91
27729;BME280;15126;42.186;24.340;2023-02-22T08:40:08;99180.59;;;19.01;31.45
27729;BME280;15126;42.186;24.340;2023-02-22T08:42:37;99149.91;;;18.94;31.06
27729;BME280;15126;42.186;24.340;2023-02-22T08:45:04;99181.31;;;19.17;31.53
27729;BME280;15126;42.186;24.340;2023-02-22T08:47:32;99175.75;;;19.22;32.50
27729;BME280;15126;42.186;24.340;2023-02-22T08:49:59;99175.44;;;19.35;33.03
27729;BME280;15126;42.186;24.340;2023-02-22T08:52:25;99175.56;;;19.46;31.57
27729;BME280;15126;42.186;24.340;2023-02-22T08:54:52;99172.41;;;19.58;31.00
27729;BME280;15126;42.186;24.340;2023-02-22T08:57:20;99168.94;;;19.69;30.41
27729;BME280;15126;42.186;24.340;2023-02-22T08:59:48;99160.00;;;19.76;28.81
27729;BME280;15126;42.186;24.340;2023-02-22T09:02:17;99168.34;;;19.85;30.20
27729;BME280;15126;42.186;24.340;2023-02-22T09:04:46;99158.59;;;19.86;30.42
27729;BME280;15126;42.186;24.340;2023-02-22T09:07:14;99159.72;;;19.94;28.76
27729;BME280;15126;42.186;24.340;2023-02-22T09:09:41;99139.38;;;19.96;30.49
27729;BME280;15126;42.186;24.340;2023-02-22T09:12:08;99157.94;;;20.23;30.63
27729;BME280;15126;42.186;24.340;2023-02-22T09:14:35;99147.56;;;20.40;28.60
27729;BME280;15126;42.186;24.340;2023-02-22T09:17:03;99144.25;;;20.47;29.11
27729;BME280;15126;42.186;24.340;2023-02-22T09:19:30;99151.84;;;20.61;29.51
27729;BME280;15126;42.186;24.340;2023-02-22T09:21:58;99139.34;;;20.73;29.15
27729;BME280;15126;42.186;24.340;2023-02-22T09:24:25;99147.09;;;20.78;28.53
27729;BME280;15126;42.186;24.340;2023-02-22T09:26:52;99141.78;;;20.91;28.21
27729;BME280;15126;42.186;24.340;2023-02-22T09:29:19;99141.28;;;20.98;29.08
27729;BME280;15126;42.186;24.340;2023-02-22T09:31:48;99140.13;;;21.10;28.52
27729;BME280;15126;42.186;24.340;2023-02-22T09:34:18;99138.16;;;21.27;28.19
27729;BME280;15126;42.186;24.340;2023-02-22T09:36:47;99137.16;;;21.36;29.04
27729;BME280;15126;42.186;24.340;2023-02-22T09:39:16;99126.19;;;21.12;27.28
27729;BME280;15126;42.186;24.340;2023-02-22T09:41:50;99123.75;;;21.36;27.42
27729;BME280;15126;42.186;24.340;2023-02-22T09:44:25;99128.13;;;21.38;29.16
27729;BME280;15126;42.186;24.340;2023-02-22T09:46:56;99129.97;;;21.41;28.28
27729;BME280;15126;42.186;24.340;2023-02-22T09:49:30;99128.44;;;21.51;28.03
27729;BME280;15126;42.186;24.340;2023-02-22T09:52:02;99131.31;;;21.62;26.50
27729;BME280;15126;42.186;24.340;2023-02-22T09:54:35;99103.63;;;21.34;28.16
27729;BME280;15126;42.186;24.340;2023-02-22T09:57:05;99096.94;;;21.38;27.95
27729;BME280;15126;42.186;24.340;2023-02-22T09:59:39;99115.06;;;21.62;26.77
27729;BME280;15126;42.186;24.340;2023-02-22T10:02:17;99110.94;;;21.58;27.15
27729;BME280;15126;42.186;24.340;2023-02-22T10:04:54;99108.59;;;21.56;27.84
27729;BME280;15126;42.186;24.340;2023-02-22T10:07:28;99098.25;;;21.48;27.44
27729;BME280;15126;42.186;24.340;2023-02-22T10:09:57;99104.22;;;21.61;25.96
27729;BME280;15126;42.186;24.340;2023-02-22T10:12:36;99096.78;;;21.63;28.17
27729;BME280;15126;42.186;24.340;2023-02-22T10:15:32;99095.72;;;21.72;27.65
27729;BME280;15126;42.186;24.340;2023-02-22T10:20:58;99087.97;;;21.61;26.04
27729;BME280;15126;42.186;24.340;2023-02-22T10:23:31;99081.28;;;21.64;27.89
27729;BME280;15126;42.186;24.340;2023-02-22T10:26:12;99065.53;;;21.69;26.80
27729;BME280;15126;42.186;24.340;2023-02-22T10:28:42;99072.31;;;21.88;26.92
27729;BME280;15126;42.186;24.340;2023-02-22T10:31:20;99067.38;;;21.83;24.86
27729;BME280;15126;42.186;24.340;2023-02-22T10:33:54;99066.56;;;21.77;26.06
27729;BME280;15126;42.186;24.340;2023-02-22T10:36:25;99046.44;;;21.75;25.44
27729;BME280;15126;42.186;24.340;2023-02-22T10:38:54;99048.31;;;21.89;25.79
27729;BME280;15126;42.186;24.340;2023-02-22T10:41:27;99042.59;;;21.83;25.08
27729;BME280;15126;42.186;24.340;2023-02-22T10:43:54;99043.41;;;21.95;25.70
27729;BME280;15126;42.186;24.340;2023-02-22T10:46:22;99038.00;;;22.08;25.04
27729;BME280;15126;42.186;24.340;2023-02-22T10:48:51;99031.28;;;22.06;24.48
27729;BME280;15126;42.186;24.340;2023-02-22T10:51:20;99027.16;;;22.01;25.68
27729;BME280;15126;42.186;24.340;2023-02-22T10:53:57;99006.50;;;21.95;24.74
27729;BME280;15126;42.186;24.340;2023-02-22T10:56:25;99011.94;;;21.93;26.29
27729;BME280;15126;42.186;24.340;2023-02-22T10:58:54;99009.09;;;21.87;24.76
27729;BME280;15126;42.186;24.340;2023-02-22T11:01:34;99020.94;;;21.97;24.54
27729;BME280;15126;42.186;24.340;2023-02-22T11:04:06;99021.72;;;21.98;23.85
27729;BME280;15126;42.186;24.340;2023-02-22T11:06:37;99007.00;;;21.93;24.51
27729;BME280;15126;42.186;24.340;2023-02-22T11:09:08;99007.53;;;21.98;25.12
27729;BME280;15126;42.186;24.340;2023-02-22T11:11:37;98984.56;;;22.01;24.69
27729;BME280;15126;42.186;24.340;2023-02-22T11:14:04;98993.03;;;22.18;25.15
27729;BME280;15126;42.186;24.340;2023-02-22T11:16:36;98980.16;;;22.17;24.68
27729;BME280;15126;42.186;24.340;2023-02-22T11:19:19;98997.69;;;22.32;24.14
27729;BME280;15126;42.186;24.340;2023-02-22T11:21:49;98989.94;;;22.38;24.26
27729;BME280;15126;42.186;24.340;2023-02-22T11:24:19;98985.81;;;22.33;24.86
27729;BME280;15126;42.186;24.340;2023-02-22T11:26:52;98980.84;;;22.45;24.69
27729;BME280;15126;42.186;24.340;2023-02-22T11:29:25;98989.38;;;22.45;24.04
27729;BME280;15126;42.186;24.340;2023-02-22T11:31:52;98988.84;;;22.58;23.50
27729;BME280;15126;42.186;24.340;2023-02-22T11:34:27;98991.44;;;22.61;24.22
27729;BME280;15126;42.186;24.340;2023-02-22T11:36:54;98985.75;;;22.61;23.89
27729;BME280;15126;42.186;24.340;2023-02-22T11:39:25;98982.44;;;22.35;24.63
27729;BME280;15126;42.186;24.340;2023-02-22T11:41:54;98965.38;;;22.40;23.94
27729;BME280;15126;42.186;24.340;2023-02-22T11:44:24;98971.81;;;22.46;23.39
27729;BME280;15126;42.186;24.340;2023-02-22T11:46:52;98972.09;;;22.37;24.80
27729;BME280;15126;42.186;24.340;2023-02-22T11:49:22;98967.97;;;22.44;24.79
27729;BME280;15126;42.186;24.340;2023-02-22T11:52:07;98962.25;;;22.49;24.15
27729;BME280;15126;42.186;24.340;2023-02-22T11:55:00;98954.50;;;22.56;23.60
27729;BME280;15126;42.186;24.340;2023-02-22T11:57:49;98947.47;;;22.62;24.01
27729;BME280;15126;42.186;24.340;2023-02-22T12:00:22;98925.56;;;22.51;23.48
27729;BME280;15126;42.186;24.340;2023-02-22T12:03:19;98932.78;;;22.64;23.77
27729;BME280;15126;42.186;24.340;2023-02-22T12:06:06;98947.50;;;22.68;24.67
27729;BME280;15126;42.186;24.340;2023-02-22T12:08:46;98935.06;;;22.76;24.19
27729;BME280;15126;42.186;24.340;2023-02-22T12:11:21;98931.19;;;22.74;24.24
27729;BME280;15126;42.186;24.340;2023-02-22T12:14:00;98933.22;;;22.84;23.14
27729;BME280;15126;42.186;24.340;2023-02-22T12:16:36;98941.66;;;23.01;23.05
27729;BME280;15126;42.186;24.340;2023-02-22T12:19:14;98931.56;;;23.00;23.48
27729;BME280;15126;42.186;24.340;2023-02-22T12:21:51;98936.22;;;23.03;23.50
27729;BME280;15126;42.186;24.340;2023-02-22T12:24:21;98926.41;;;23.04;25.00
27729;BME280;15126;42.186;24.340;2023-02-22T12:26:55;98923.81;;;23.00;23.49
27729;BME280;15126;42.186;24.340;2023-02-22T12:29:27;98915.22;;;23.11;23.32
27729;BME280;15126;42.186;24.340;2023-02-22T12:32:00;98911.22;;;23.31;23.20
27729;BME280;15126;42.186;24.340;2023-02-22T12:34:33;98900.31;;;23.35;22.88
27729;BME280;15126;42.186;24.340;2023-02-22T12:37:10;98898.16;;;23.52;22.94
27729;BME280;15126;42.186;24.340;2023-02-22T12:39:46;98911.56;;;23.57;22.67
27729;BME280;15126;42.186;24.340;2023-02-22T12:42:21;98906.09;;;23.59;22.31
27729;BME280;15126;42.186;24.340;2023-02-22T12:44:53;98890.28;;;23.64;23.04
27729;BME280;15126;42.186;24.340;2023-02-22T12:47:29;98897.25;;;23.68;22.32
27729;BME280;15126;42.186;24.340;2023-02-22T12:50:02;98904.13;;;23.49;22.71
27729;BME280;15126;42.186;24.340;2023-02-22T12:52:40;98901.38;;;23.32;22.89
27729;BME280;15126;42.186;24.340;2023-02-22T12:55:11;98899.53;;;23.40;22.82
27729;BME280;15126;42.186;24.340;2023-02-22T12:57:46;98899.00;;;23.42;22.87
27729;BME280;15126;42.186;24.340;2023-02-22T13:00:16;98896.44;;;23.33;22.75
27729;BME280;15126;42.186;24.340;2023-02-22T13:02:56;98890.91;;;23.10;23.79
27729;BME280;15126;42.186;24.340;2023-02-22T13:05:24;98891.38;;;23.20;22.60
27729;BME280;15126;42.186;24.340;2023-02-22T13:08:05;98880.81;;;23.15;23.16
27729;BME280;15126;42.186;24.340;2023-02-22T13:11:07;98893.94;;;23.24;23.29
27729;BME280;15126;42.186;24.340;2023-02-22T13:13:45;98879.09;;;23.01;22.66